Time;durP1;ratioP1;P1;durP2;ratioP2;P2;SDS_P1;SDS_P2;PMS_P1;PMS_P2;Temp;Humidity;BMP_temperature;BMP_pressure;BME280_temperature;BME280_humidity;BME280_pressure;Samples;Min_cycle;Max_cycle;Signal;HPM_P1;HPM_P2
2023/09/07 00:00:18;;;;;;;;;;;18.80;99.90;;;;;;5040083;28;19966;-70
2023/09/07 00:02:44;;;;;;;;;;;18.80;99.90;;;;;;5068634;28;20404;-70
2023/09/07 00:05:09;;;;;;;;;;;18.80;99.90;;;;;;5040201;28;19920;-70
2023/09/07 00:07:35;;;;;;;;;;;18.80;99.90;;;;;;5042027;28;20393;-70
2023/09/07 00:10:01;;;;;;;;;;;18.80;99.90;;;;;;5034041;28;19920;-69
2023/09/07 00:12:27;;;;;;;;;;;18.70;99.90;;;;;;5070117;28;20623;-69
2023/09/07 00:14:54;;;;;;;;;;;18.80;99.90;;;;;;5039605;28;20462;-70
2023/09/07 00:17:19;;;;;;;;;;;18.70;99.90;;;;;;5036702;28;19932;-70
2023/09/07 00:19:47;;;;;;;;;;;18.70;99.90;;;;;;5030042;28;19924;-69
2023/09/07 00:22:12;;;;;;;;;;;18.70;99.90;;;;;;5035592;28;19925;-70
2023/09/07 00:24:38;;;;;;;;;;;18.70;99.90;;;;;;5036133;28;19923;-69
2023/09/07 00:27:05;;;;;;;;;;;18.60;99.90;;;;;;5036132;28;20383;-70
2023/09/07 00:29:31;;;;;;;;;;;18.60;99.90;;;;;;5034117;28;19925;-69
2023/09/07 00:31:56;;;;;;;;;;;18.60;99.90;;;;;;5039333;28;19932;-69
2023/09/07 00:34:22;;;;;;;;;;;18.60;99.90;;;;;;5037371;28;20421;-69
2023/09/07 00:36:47;;;;;;;;;;;18.50;99.90;;;;;;5037099;28;19932;-70
2023/09/07 00:39:13;;;;;;;;;;;18.60;99.90;;;;;;5037782;28;19917;-70
2023/09/07 00:41:38;;;;;;;;;;;18.50;99.90;;;;;;5035841;28;20394;-69
2023/09/07 00:44:04;;;;;;;;;;;18.50;99.90;;;;;;5038875;28;19925;-70
2023/09/07 00:46:29;;;;;;;;;;;18.50;99.90;;;;;;5037957;28;19937;-70
2023/09/07 00:48:55;;;;;;;;;;;18.40;99.90;;;;;;5036755;28;19917;-70
2023/09/07 00:51:21;;;;;;;;;;;18.40;99.90;;;;;;5039271;28;19982;-70
2023/09/07 00:53:47;;;;;;;;;;;18.40;99.90;;;;;;5040637;28;20383;-70
2023/09/07 00:56:12;;;;;;;;;;;18.40;99.90;;;;;;5036501;28;20396;-69
2023/09/07 00:58:38;;;;;;;;;;;18.40;99.90;;;;;;5038610;28;19920;-69
2023/09/07 01:01:03;;;;;;;;;;;18.40;99.90;;;;;;5040125;28;19935;-69
2023/09/07 01:03:29;;;;;;;;;;;18.40;99.90;;;;;;5041085;28;19981;-69
2023/09/07 01:06:07;;;;;;;;;;;18.40;99.90;;;;;;5034146;28;19955;-69
2023/09/07 01:08:37;;;;;;;;;;;18.30;99.90;;;;;;5055452;28;19952;-69
2023/09/07 01:11:12;;;;;;;;;;;18.30;99.90;;;;;;5033341;28;19982;-69
2023/09/07 01:13:37;;;;;;;;;;;18.30;99.90;;;;;;5055915;28;20509;-70
2023/09/07 01:16:03;;;;;;;;;;;18.30;99.90;;;;;;5036360;28;19979;-70
2023/09/07 01:18:29;;;;;;;;;;;18.30;99.90;;;;;;5037796;28;20287;-70
2023/09/07 01:20:55;;;;;;;;;;;18.20;99.90;;;;;;5023527;28;19960;-70
2023/09/07 01:23:20;;;;;;;;;;;18.20;99.90;;;;;;5039895;28;19916;-69
2023/09/07 01:25:47;;;;;;;;;;;18.20;99.90;;;;;;5040232;28;20401;-69
2023/09/07 01:28:12;;;;;;;;;;;18.20;99.90;;;;;;5034560;28;19916;-70
2023/09/07 01:30:39;;;;;;;;;;;18.20;99.90;;;;;;5040522;28;19946;-69
2023/09/07 01:33:05;;;;;;;;;;;18.10;99.90;;;;;;5036777;28;19917;-69
2023/09/07 01:35:31;;;;;;;;;;;18.10;99.90;;;;;;5035962;28;19932;-70
2023/09/07 01:37:57;;;;;;;;;;;18.10;99.90;;;;;;5035921;28;19920;-70
2023/09/07 01:40:22;;;;;;;;;;;18.00;99.90;;;;;;5035977;28;19927;-69
2023/09/07 01:42:47;;;;;;;;;;;18.00;99.90;;;;;;5037212;28;19921;-69
2023/09/07 01:45:13;;;;;;;;;;;18.00;99.90;;;;;;5037947;28;20363;-69
2023/09/07 01:47:38;;;;;;;;;;;18.00;99.90;;;;;;5032649;28;19917;-69
2023/09/07 01:50:04;;;;;;;;;;;18.00;99.90;;;;;;5043957;28;19924;-69
2023/09/07 01:52:31;;;;;;;;;;;18.00;99.90;;;;;;5036964;28;19920;-69
2023/09/07 01:54:56;;;;;;;;;;;18.00;99.90;;;;;;5036800;28;19921;-69
2023/09/07 01:57:22;;;;;;;;;;;18.00;99.90;;;;;;5036153;28;19981;-69
2023/09/07 01:59:48;;;;;;;;;;;18.00;99.90;;;;;;5042853;28;20015;-69
2023/09/07 02:02:13;;;;;;;;;;;18.00;99.90;;;;;;5035759;28;19967;-69
2023/09/07 02:04:40;;;;;;;;;;;18.00;99.90;;;;;;5036865;28;19963;-69
2023/09/07 02:07:06;;;;;;;;;;;18.00;99.90;;;;;;5032086;28;19967;-69
2023/09/07 02:09:32;;;;;;;;;;;18.00;99.90;;;;;;5037841;28;20361;-69
2023/09/07 02:11:57;;;;;;;;;;;18.00;99.90;;;;;;5036269;28;19920;-69
2023/09/07 02:14:23;;;;;;;;;;;18.00;99.90;;;;;;5027642;28;20343;-69
2023/09/07 02:16:48;;;;;;;;;;;18.00;99.90;;;;;;5068896;28;19936;-69
2023/09/07 02:19:14;;;;;;;;;;;18.00;99.90;;;;;;5038879;28;20335;-69
2023/09/07 02:21:39;;;;;;;;;;;18.00;99.90;;;;;;5034258;28;19940;-69
2023/09/07 02:24:05;;;;;;;;;;;18.00;99.90;;;;;;5034461;28;19927;-69
2023/09/07 02:26:30;;;;;;;;;;;18.00;99.90;;;;;;5037047;28;20827;-69
2023/09/07 02:28:56;;;;;;;;;;;18.00;99.90;;;;;;5033963;28;19920;-69
2023/09/07 02:31:21;;;;;;;;;;;18.00;99.90;;;;;;5036884;28;19924;-69
2023/09/07 02:33:47;;;;;;;;;;;18.00;99.90;;;;;;5037689;28;19925;-69
2023/09/07 02:36:12;;;;;;;;;;;18.00;99.90;;;;;;5034755;28;20368;-69
2023/09/07 02:38:38;;;;;;;;;;;17.90;99.90;;;;;;5026543;28;19940;-69
2023/09/07 02:41:03;;;;;;;;;;;17.90;99.90;;;;;;5032243;28;20015;-69
2023/09/07 02:43:29;;;;;;;;;;;17.90;99.90;;;;;;5036996;28;19967;-69
2023/09/07 02:45:54;;;;;;;;;;;17.90;99.90;;;;;;5035741;28;19994;-69
2023/09/07 02:48:20;;;;;;;;;;;17.80;99.90;;;;;;5031601;28;19920;-70
2023/09/07 02:50:48;;;;;;;;;;;17.80;99.90;;;;;;5066689;28;19925;-69
2023/09/07 02:53:14;;;;;;;;;;;17.80;99.90;;;;;;5034228;28;20255;-69
2023/09/07 02:55:40;;;;;;;;;;;17.70;99.90;;;;;;5032752;28;19921;-70
2023/09/07 02:58:05;;;;;;;;;;;17.70;99.90;;;;;;5033773;28;20394;-69
2023/09/07 03:00:31;;;;;;;;;;;17.70;99.90;;;;;;5030095;28;20027;-69
2023/09/07 03:02:56;;;;;;;;;;;17.60;99.90;;;;;;5060211;28;20007;-69
2023/09/07 03:05:22;;;;;;;;;;;17.50;99.90;;;;;;5039943;28;20277;-69
2023/09/07 03:07:47;;;;;;;;;;;17.50;99.90;;;;;;5034444;28;19974;-69
2023/09/07 03:10:13;;;;;;;;;;;17.50;99.90;;;;;;5066629;28;19924;-69
2023/09/07 03:12:39;;;;;;;;;;;17.50;99.90;;;;;;5029492;28;19928;-69
2023/09/07 03:15:04;;;;;;;;;;;17.50;99.90;;;;;;5053605;28;19916;-68
2023/09/07 03:17:30;;;;;;;;;;;17.50;99.90;;;;;;5034170;28;19927;-69
2023/09/07 03:19:56;;;;;;;;;;;17.40;99.90;;;;;;5068483;28;20390;-68
2023/09/07 03:22:22;;;;;;;;;;;17.40;99.90;;;;;;5024481;28;20438;-68
2023/09/07 03:24:50;;;;;;;;;;;17.40;99.90;;;;;;5043412;28;19921;-68
2023/09/07 03:27:15;;;;;;;;;;;17.40;99.90;;;;;;5039575;28;19917;-69
2023/09/07 03:29:40;;;;;;;;;;;17.30;99.90;;;;;;5037168;28;20426;-69
2023/09/07 03:32:06;;;;;;;;;;;17.30;99.90;;;;;;5068720;28;20015;-68
2023/09/07 03:34:31;;;;;;;;;;;17.30;99.90;;;;;;5044451;28;19978;-69
2023/09/07 03:36:57;;;;;;;;;;;17.20;99.90;;;;;;5042147;28;19920;-69
2023/09/07 03:39:22;;;;;;;;;;;17.20;99.90;;;;;;5042174;28;20287;-69
2023/09/07 03:41:48;;;;;;;;;;;17.20;99.90;;;;;;5041365;28;21206;-69
2023/09/07 03:44:13;;;;;;;;;;;17.10;99.90;;;;;;5039501;28;19925;-69
2023/09/07 03:46:39;;;;;;;;;;;17.10;99.90;;;;;;5037581;28;20253;-70
2023/09/07 03:49:05;;;;;;;;;;;17.10;99.90;;;;;;5043155;28;20359;-69
2023/09/07 03:51:30;;;;;;;;;;;17.10;99.90;;;;;;5042894;28;19923;-70
2023/09/07 03:53:56;;;;;;;;;;;17.10;99.90;;;;;;5037116;28;20448;-69
2023/09/07 03:56:21;;;;;;;;;;;17.10;99.90;;;;;;5041209;28;20362;-69
2023/09/07 03:58:47;;;;;;;;;;;17.00;99.90;;;;;;5042770;28;19982;-69
2023/09/07 04:01:13;;;;;;;;;;;17.00;99.90;;;;;;5044101;28;19924;-69
2023/09/07 04:03:40;;;;;;;;;;;17.00;99.90;;;;;;5039830;28;19943;-70
2023/09/07 04:06:05;;;;;;;;;;;16.90;99.90;;;;;;5017052;28;19972;-69
2023/09/07 04:08:31;;;;;;;;;;;16.90;99.90;;;;;;5043424;28;20638;-70
2023/09/07 04:10:56;;;;;;;;;;;16.90;99.90;;;;;;5033064;28;20268;-69
2023/09/07 04:13:22;;;;;;;;;;;16.90;99.90;;;;;;5043262;28;19917;-69
2023/09/07 04:15:47;;;;;;;;;;;16.90;99.90;;;;;;5042766;28;19925;-69
2023/09/07 04:18:15;;;;;;;;;;;16.80;99.90;;;;;;5041824;28;20026;-68
2023/09/07 04:20:40;;;;;;;;;;;16.80;99.90;;;;;;5043597;28;19928;-68
2023/09/07 04:23:06;;;;;;;;;;;16.80;99.90;;;;;;5041526;28;19916;-69
2023/09/07 04:25:32;;;;;;;;;;;16.80;99.90;;;;;;5042335;28;19921;-69
2023/09/07 04:27:58;;;;;;;;;;;16.80;99.90;;;;;;5040270;28;19988;-68
2023/09/07 04:30:23;;;;;;;;;;;16.80;99.90;;;;;;5042947;28;19920;-69
2023/09/07 04:32:49;;;;;;;;;;;16.70;99.90;;;;;;5031262;28;20269;-69
2023/09/07 04:35:15;;;;;;;;;;;16.70;99.90;;;;;;5041310;28;19924;-69
2023/09/07 04:37:44;;;;;;;;;;;16.70;99.90;;;;;;5040729;28;19935;-69
2023/09/07 04:40:09;;;;;;;;;;;16.70;99.90;;;;;;5043414;28;19917;-69
2023/09/07 04:42:35;;;;;;;;;;;16.70;99.90;;;;;;5038256;28;19927;-70
2023/09/07 04:45:00;;;;;;;;;;;16.70;99.90;;;;;;5044723;28;20275;-69
2023/09/07 04:47:26;;;;;;;;;;;16.70;99.90;;;;;;5045303;28;20291;-69
2023/09/07 04:49:51;;;;;;;;;;;16.70;99.90;;;;;;5044882;28;19923;-69
2023/09/07 04:52:17;;;;;;;;;;;16.70;99.90;;;;;;5042028;28;19916;-69
2023/09/07 04:54:43;;;;;;;;;;;16.60;99.90;;;;;;5047461;28;19921;-69
2023/09/07 04:57:08;;;;;;;;;;;16.60;99.90;;;;;;5028713;28;19924;-68
2023/09/07 04:59:34;;;;;;;;;;;16.60;99.90;;;;;;5044510;28;20374;-68
2023/09/07 05:02:01;;;;;;;;;;;16.60;99.90;;;;;;5042050;28;19921;-69
2023/09/07 05:04:27;;;;;;;;;;;16.60;99.90;;;;;;5052288;28;20061;-69
2023/09/07 05:06:52;;;;;;;;;;;16.60;99.90;;;;;;5037436;28;19928;-69
2023/09/07 05:09:19;;;;;;;;;;;16.60;99.90;;;;;;5040581;28;20470;-69
2023/09/07 05:11:45;;;;;;;;;;;16.60;99.90;;;;;;5037518;28;19956;-69
2023/09/07 05:14:11;;;;;;;;;;;16.60;99.90;;;;;;5040328;28;20005;-69
2023/09/07 05:16:36;;;;;;;;;;;16.60;99.90;;;;;;5040445;28;20011;-68
2023/09/07 05:19:02;;;;;;;;;;;16.60;99.90;;;;;;5036360;28;20320;-69
2023/09/07 05:21:27;;;;;;;;;;;16.60;99.90;;;;;;5034778;28;19923;-69
2023/09/07 05:23:52;;;;;;;;;;;16.70;99.90;;;;;;5041645;28;19917;-68
2023/09/07 05:26:23;;;;;;;;;;;16.70;99.90;;;;;;5041733;28;20291;-69
2023/09/07 05:28:49;;;;;;;;;;;16.70;99.90;;;;;;5043050;28;19917;-69
2023/09/07 05:31:15;;;;;;;;;;;16.70;99.90;;;;;;5040386;28;19927;-68
2023/09/07 05:33:40;;;;;;;;;;;16.70;99.90;;;;;;5042589;28;19921;-69
2023/09/07 05:36:05;;;;;;;;;;;16.80;99.90;;;;;;5037465;28;19921;-68
2023/09/07 05:38:31;;;;;;;;;;;16.80;99.90;;;;;;5045339;28;19929;-69
2023/09/07 05:40:56;;;;;;;;;;;16.80;99.90;;;;;;5024999;28;20432;-69
2023/09/07 05:43:22;;;;;;;;;;;16.80;99.90;;;;;;5038697;28;19920;-69
2023/09/07 05:45:47;;;;;;;;;;;16.90;99.90;;;;;;5043809;28;20321;-69
2023/09/07 05:48:16;;;;;;;;;;;16.90;99.90;;;;;;5042562;28;19921;-69
2023/09/07 05:50:41;;;;;;;;;;;16.90;99.90;;;;;;5044867;28;19925;-69
2023/09/07 05:53:07;;;;;;;;;;;16.90;99.90;;;;;;5037687;28;19917;-69
2023/09/07 05:55:32;;;;;;;;;;;17.00;99.90;;;;;;5042611;28;19916;-69
2023/09/07 05:57:58;;;;;;;;;;;17.00;99.90;;;;;;5040340;28;19920;-69
2023/09/07 06:00:24;;;;;;;;;;;17.10;99.90;;;;;;5044702;28;19924;-69
2023/09/07 06:02:49;;;;;;;;;;;17.10;99.90;;;;;;5039745;28;19928;-70
2023/09/07 06:05:15;;;;;;;;;;;17.20;99.90;;;;;;5045279;28;20347;-69
2023/09/07 06:07:41;;;;;;;;;;;17.20;99.90;;;;;;5033909;28;19925;-69
2023/09/07 06:10:07;;;;;;;;;;;17.20;99.90;;;;;;5040054;28;19921;-69
2023/09/07 06:12:32;;;;;;;;;;;17.30;99.90;;;;;;5038978;28;19920;-69
2023/09/07 06:14:59;;;;;;;;;;;17.40;99.90;;;;;;5042815;28;19916;-69
2023/09/07 06:17:24;;;;;;;;;;;17.40;99.90;;;;;;5040943;28;20363;-69
2023/09/07 06:19:50;;;;;;;;;;;17.50;99.90;;;;;;5079065;28;19928;-69
2023/09/07 06:22:15;;;;;;;;;;;17.50;99.90;;;;;;5040392;28;20420;-70
2023/09/07 06:24:41;;;;;;;;;;;17.60;99.90;;;;;;5039240;28;19936;-69
2023/09/07 06:27:06;;;;;;;;;;;17.70;99.90;;;;;;5038786;28;19950;-69
2023/09/07 06:29:32;;;;;;;;;;;17.70;99.90;;;;;;5027942;28;20398;-69
2023/09/07 06:31:58;;;;;;;;;;;17.80;99.90;;;;;;5040477;28;19923;-69
2023/09/07 06:34:23;;;;;;;;;;;17.90;99.90;;;;;;5040408;28;19924;-69
2023/09/07 06:36:50;;;;;;;;;;;18.00;99.90;;;;;;5039521;28;19920;-70
2023/09/07 06:39:15;;;;;;;;;;;18.10;99.90;;;;;;5041442;28;20033;-69
2023/09/07 06:41:41;;;;;;;;;;;18.10;99.90;;;;;;5072654;28;20013;-70
2023/09/07 06:44:07;;;;;;;;;;;18.20;99.90;;;;;;5044322;28;20382;-69
2023/09/07 06:46:33;;;;;;;;;;;18.30;99.90;;;;;;5038690;28;19920;-69
2023/09/07 06:48:58;;;;;;;;;;;18.40;99.90;;;;;;5041567;28;20008;-69
2023/09/07 06:51:23;;;;;;;;;;;18.50;99.90;;;;;;5040455;28;19959;-69
2023/09/07 06:53:50;;;;;;;;;;;18.60;99.90;;;;;;5025094;28;20302;-70
2023/09/07 06:56:15;;;;;;;;;;;18.70;99.90;;;;;;5044985;28;19916;-70
2023/09/07 06:58:41;;;;;;;;;;;18.70;99.90;;;;;;5046704;28;19931;-69
2023/09/07 07:01:07;;;;;;;;;;;18.80;99.90;;;;;;5047406;28;19936;-70
2023/09/07 07:03:34;;;;;;;;;;;18.90;99.90;;;;;;5044175;28;20256;-69
2023/09/07 07:06:00;;;;;;;;;;;19.00;99.90;;;;;;5041638;28;20320;-69
2023/09/07 07:08:25;;;;;;;;;;;19.20;99.90;;;;;;5044542;28;20406;-70
2023/09/07 07:10:51;;;;;;;;;;;19.30;99.90;;;;;;5046924;28;20019;-70
2023/09/07 07:13:16;;;;;;;;;;;19.40;99.90;;;;;;5042413;28;19916;-69
2023/09/07 07:15:42;;;;;;;;;;;19.50;99.90;;;;;;5042773;28;19956;-69
2023/09/07 07:18:10;;;;;;;;;;;19.50;99.90;;;;;;5041128;28;19925;-69
2023/09/07 07:20:37;;;;;;;;;;;19.60;99.90;;;;;;5078130;28;19921;-69
2023/09/07 07:23:02;;;;;;;;;;;19.80;99.90;;;;;;5045867;28;19917;-69
2023/09/07 07:25:28;;;;;;;;;;;19.90;99.90;;;;;;5050481;28;19924;-69
2023/09/07 07:27:53;;;;;;;;;;;19.90;99.90;;;;;;5045395;28;19955;-69
2023/09/07 07:30:19;;;;;;;;;;;20.00;99.90;;;;;;5046476;28;20371;-69
2023/09/07 07:32:44;;;;;;;;;;;20.10;99.90;;;;;;5048274;28;19967;-69
2023/09/07 07:35:10;;;;;;;;;;;20.20;99.90;;;;;;5041424;28;19916;-69
2023/09/07 07:37:35;;;;;;;;;;;20.30;99.90;;;;;;5035730;28;20361;-69
2023/09/07 07:40:01;;;;;;;;;;;20.40;99.90;;;;;;5042017;28;20469;-69
2023/09/07 07:42:26;;;;;;;;;;;20.50;99.90;;;;;;5046062;28;19920;-69
2023/09/07 07:44:52;;;;;;;;;;;20.60;99.90;;;;;;5045250;28;20019;-69
2023/09/07 07:47:17;;;;;;;;;;;20.70;99.90;;;;;;5044328;28;19968;-69
2023/09/07 07:49:43;;;;;;;;;;;20.80;99.90;;;;;;5051441;28;19921;-68
2023/09/07 07:52:08;;;;;;;;;;;20.80;99.90;;;;;;5046083;28;20125;-69
2023/09/07 07:54:34;;;;;;;;;;;21.00;99.90;;;;;;5052102;28;19970;-69
2023/09/07 07:56:59;;;;;;;;;;;21.10;99.90;;;;;;5041893;28;20011;-69
2023/09/07 07:59:25;;;;;;;;;;;21.10;99.90;;;;;;5050036;28;19939;-69
2023/09/07 08:01:50;;;;;;;;;;;21.20;99.90;;;;;;5041969;28;19921;-68
2023/09/07 08:04:16;;;;;;;;;;;21.30;99.90;;;;;;5044273;28;20361;-68
2023/09/07 08:06:41;;;;;;;;;;;21.40;99.90;;;;;;5042627;28;19975;-69
2023/09/07 08:09:08;;;;;;;;;;;21.50;99.90;;;;;;5045725;28;20287;-68
2023/09/07 08:11:33;;;;;;;;;;;21.50;99.90;;;;;;5047969;28;19928;-69
2023/09/07 08:13:59;;;;;;;;;;;21.60;99.90;;;;;;5045822;28;20447;-67
2023/09/07 08:16:24;;;;;;;;;;;21.70;99.90;;;;;;5047415;28;20331;-68
2023/09/07 08:18:50;;;;;;;;;;;21.80;99.90;;;;;;5077394;28;19927;-68
2023/09/07 08:21:16;;;;;;;;;;;21.80;99.90;;;;;;5047691;28;20380;-68
2023/09/07 08:23:41;;;;;;;;;;;21.90;99.90;;;;;;5040089;28;19925;-68
2023/09/07 08:26:09;;;;;;;;;;;22.00;99.90;;;;;;5036779;28;20346;-68
2023/09/07 08:28:34;;;;;;;;;;;22.00;99.90;;;;;;5047108;28;20935;-68
2023/09/07 08:31:01;;;;;;;;;;;22.10;99.90;;;;;;5048471;28;20039;-68
2023/09/07 08:33:31;;;;;;;;;;;22.20;99.90;;;;;;5047802;28;19917;-69
2023/09/07 08:35:56;;;;;;;;;;;22.30;99.90;;;;;;5047705;28;19982;-69
2023/09/07 08:38:25;;;;;;;;;;;22.40;99.90;;;;;;5047159;28;19928;-69
2023/09/07 08:40:55;;;;;;;;;;;22.40;99.90;;;;;;5044256;28;20206;-67
2023/09/07 08:43:21;;;;;;;;;;;22.50;99.90;;;;;;5029047;28;20367;-68
2023/09/07 08:45:50;;;;;;;;;;;22.60;99.90;;;;;;5045158;28;20031;-68
2023/09/07 08:48:17;;;;;;;;;;;22.60;99.90;;;;;;5044049;28;19935;-68
2023/09/07 08:50:49;;;;;;;;;;;22.60;99.90;;;;;;5049453;28;19920;-68
2023/09/07 08:53:16;;;;;;;;;;;22.70;99.90;;;;;;5046747;28;20326;-68
2023/09/07 08:55:41;;;;;;;;;;;22.80;99.90;;;;;;5048313;28;19920;-69
2023/09/07 08:58:07;;;;;;;;;;;22.80;99.90;;;;;;5044716;28;19951;-68
2023/09/07 09:00:33;;;;;;;;;;;23.00;99.90;;;;;;5043940;28;19920;-68
2023/09/07 09:02:59;;;;;;;;;;;23.00;99.90;;;;;;5045497;28;19947;-68
2023/09/07 09:05:28;;;;;;;;;;;23.10;99.90;;;;;;5047216;28;19923;-67
2023/09/07 09:08:04;;;;;;;;;;;23.10;99.90;;;;;;5044559;28;19921;-68
2023/09/07 09:10:29;;;;;;;;;;;23.20;99.90;;;;;;5047772;28;19979;-68
2023/09/07 09:12:55;;;;;;;;;;;23.20;99.90;;;;;;5045779;28;20374;-68
2023/09/07 09:15:23;;;;;;;;;;;23.30;99.90;;;;;;5052918;28;19917;-68
2023/09/07 09:17:49;;;;;;;;;;;23.40;99.90;;;;;;5033812;28;20329;-68
2023/09/07 09:20:25;;;;;;;;;;;23.40;99.90;;;;;;5044916;28;20012;-68
2023/09/07 09:22:51;;;;;;;;;;;23.50;99.90;;;;;;5047073;28;20155;-67
2023/09/07 09:25:17;;;;;;;;;;;23.50;99.90;;;;;;5058906;28;19970;-68
2023/09/07 09:27:42;;;;;;;;;;;23.50;99.90;;;;;;5043612;28;19921;-67
2023/09/07 09:30:08;;;;;;;;;;;23.60;99.90;;;;;;5065238;28;19917;-67
2023/09/07 09:32:33;;;;;;;;;;;23.60;99.90;;;;;;5038091;28;19924;-68
2023/09/07 09:35:02;;;;;;;;;;;23.70;99.90;;;;;;5047290;28;19924;-68
2023/09/07 09:37:28;;;;;;;;;;;23.80;99.90;;;;;;5040821;28;20003;-67
2023/09/07 09:39:55;;;;;;;;;;;23.80;99.90;;;;;;5045960;28;20503;-68
2023/09/07 09:42:21;;;;;;;;;;;23.90;99.90;;;;;;5047019;28;19925;-67
2023/09/07 09:44:49;;;;;;;;;;;24.00;99.90;;;;;;5045108;28;19917;-67
2023/09/07 09:47:15;;;;;;;;;;;24.00;99.90;;;;;;5047725;28;19960;-68
2023/09/07 09:49:40;;;;;;;;;;;24.10;99.90;;;;;;5044949;28;19951;-67
2023/09/07 09:52:07;;;;;;;;;;;24.20;99.90;;;;;;5039561;28;19924;-68
2023/09/07 09:54:34;;;;;;;;;;;24.30;99.90;;;;;;5037963;28;19986;-67
2023/09/07 09:57:00;;;;;;;;;;;24.30;99.90;;;;;;5078692;28;19947;-67
2023/09/07 09:59:26;;;;;;;;;;;24.40;99.90;;;;;;5046211;28;19920;-67
2023/09/07 10:01:52;;;;;;;;;;;24.50;99.90;;;;;;5081772;28;20214;-67
2023/09/07 10:04:18;;;;;;;;;;;24.60;99.90;;;;;;5045600;28;20174;-68
2023/09/07 10:06:53;;;;;;;;;;;24.70;99.90;;;;;;5045781;28;19916;-67
2023/09/07 10:09:19;;;;;;;;;;;24.70;99.90;;;;;;5043046;28;19956;-68
2023/09/07 10:11:50;;;;;;;;;;;24.80;99.90;;;;;;5043058;28;19952;-66
2023/09/07 10:14:16;;;;;;;;;;;24.80;99.90;;;;;;5046958;28;19970;-67
2023/09/07 10:16:45;;;;;;;;;;;24.90;99.90;;;;;;5039388;28;19925;-67
2023/09/07 10:19:18;;;;;;;;;;;24.90;99.90;;;;;;5044473;28;19924;-67
2023/09/07 10:21:43;;;;;;;;;;;25.00;99.90;;;;;;5046261;28;19983;-67
2023/09/07 10:24:09;;;;;;;;;;;25.10;99.90;;;;;;5044335;28;20351;-67
2023/09/07 10:26:34;;;;;;;;;;;25.10;99.90;;;;;;5050263;28;19923;-67
2023/09/07 10:29:02;;;;;;;;;;;25.20;99.90;;;;;;5044183;28;19939;-67
2023/09/07 10:31:27;;;;;;;;;;;25.20;99.90;;;;;;5046858;28;20360;-67
2023/09/07 10:33:53;;;;;;;;;;;25.20;99.90;;;;;;5047743;28;19917;-67
2023/09/07 10:36:22;;;;;;;;;;;25.30;99.90;;;;;;5042755;28;19916;-67
2023/09/07 10:38:47;;;;;;;;;;;25.40;99.90;;;;;;5043576;28;20152;-67
2023/09/07 10:41:13;;;;;;;;;;;25.40;99.90;;;;;;5037859;28;20323;-67
2023/09/07 10:43:46;;;;;;;;;;;25.40;99.90;;;;;;5046133;28;20326;-67
2023/09/07 10:46:12;;;;;;;;;;;25.50;99.90;;;;;;5049550;28;20005;-67
2023/09/07 10:48:37;;;;;;;;;;;25.50;99.90;;;;;;5045929;28;19924;-66
2023/09/07 10:51:03;;;;;;;;;;;25.50;99.90;;;;;;5046463;28;19921;-67
2023/09/07 10:53:29;;;;;;;;;;;25.50;99.90;;;;;;5045201;28;19921;-67
2023/09/07 10:55:57;;;;;;;;;;;25.50;99.90;;;;;;5028051;28;20047;-67
2023/09/07 10:58:26;;;;;;;;;;;25.60;99.90;;;;;;5038136;28;19924;-67
2023/09/07 11:00:52;;;;;;;;;;;25.60;99.90;;;;;;5043889;28;19917;-67
2023/09/07 11:03:18;;;;;;;;;;;25.70;99.90;;;;;;5036344;28;19961;-67
2023/09/07 11:05:43;;;;;;;;;;;25.80;99.90;;;;;;5044766;28;19927;-67
2023/09/07 11:08:09;;;;;;;;;;;25.80;99.90;;;;;;5040831;28;19917;-67
2023/09/07 11:10:34;;;;;;;;;;;25.90;99.90;;;;;;5045638;28;19921;-66
2023/09/07 11:13:04;;;;;;;;;;;26.00;99.90;;;;;;5043731;28;20019;-67
2023/09/07 11:15:30;;;;;;;;;;;26.00;99.90;;;;;;5045419;28;19932;-67
2023/09/07 11:17:56;;;;;;;;;;;26.10;99.90;;;;;;5044967;28;19928;-67
2023/09/07 11:20:23;;;;;;;;;;;26.20;99.90;;;;;;5047885;28;19917;-67
2023/09/07 11:22:48;;;;;;;;;;;26.20;99.90;;;;;;5041879;28;19921;-66
2023/09/07 11:25:15;;;;;;;;;;;26.20;99.90;;;;;;5043176;28;19917;-66
2023/09/07 11:27:40;;;;;;;;;;;26.30;99.90;;;;;;5043630;28;19989;-66
2023/09/07 11:30:07;;;;;;;;;;;26.30;99.90;;;;;;5046306;28;20363;-67
2023/09/07 11:32:33;;;;;;;;;;;26.30;99.90;;;;;;5035845;28;19920;-67
2023/09/07 11:34:59;;;;;;;;;;;26.40;99.90;;;;;;5052463;28;19921;-67
2023/09/07 11:37:25;;;;;;;;;;;26.40;99.90;;;;;;5042859;28;20032;-66
2023/09/07 11:39:51;;;;;;;;;;;26.40;99.90;;;;;;5048974;28;20272;-66
2023/09/07 11:42:16;;;;;;;;;;;26.40;99.90;;;;;;5043772;28;19931;-66
2023/09/07 11:44:42;;;;;;;;;;;26.50;99.90;;;;;;5029109;28;19924;-67
2023/09/07 11:47:07;;;;;;;;;;;26.50;99.90;;;;;;5037645;28;19921;-67
2023/09/07 11:49:33;;;;;;;;;;;26.60;99.90;;;;;;5045326;28;19988;-67
2023/09/07 11:51:58;;;;;;;;;;;26.60;99.90;;;;;;5048097;28;19917;-67
2023/09/07 11:54:24;;;;;;;;;;;26.70;99.90;;;;;;5046910;28;19925;-66
2023/09/07 11:56:49;;;;;;;;;;;26.70;99.90;;;;;;5043575;28;19970;-66
2023/09/07 11:59:17;;;;;;;;;;;26.80;99.90;;;;;;5045719;28;19955;-65
2023/09/07 12:01:42;;;;;;;;;;;26.80;99.90;;;;;;5043352;28;20371;-66
2023/09/07 12:04:08;;;;;;;;;;;26.80;99.90;;;;;;5044862;28;20007;-67
2023/09/07 12:06:33;;;;;;;;;;;26.80;99.90;;;;;;5042713;28;19924;-66
2023/09/07 12:09:00;;;;;;;;;;;26.90;99.90;;;;;;5047801;28;20374;-66
2023/09/07 12:11:25;;;;;;;;;;;26.80;99.90;;;;;;5037913;28;19916;-67
2023/09/07 12:13:51;;;;;;;;;;;26.90;99.90;;;;;;5045025;28;19975;-66
2023/09/07 12:16:17;;;;;;;;;;;26.90;99.90;;;;;;5042283;28;20287;-66
2023/09/07 12:18:43;;;;;;;;;;;26.90;99.90;;;;;;5047011;28;19943;-66
2023/09/07 12:21:08;;;;;;;;;;;26.90;99.90;;;;;;5045371;28;20372;-66
2023/09/07 12:23:34;;;;;;;;;;;26.90;99.90;;;;;;5040245;28;19924;-66
2023/09/07 12:26:00;;;;;;;;;;;26.90;99.90;;;;;;5049043;28;19916;-66
2023/09/07 12:28:26;;;;;;;;;;;26.90;99.90;;;;;;5045450;28;19927;-66
2023/09/07 12:30:51;;;;;;;;;;;26.90;99.90;;;;;;5047533;28;19920;-67
2023/09/07 12:33:17;;;;;;;;;;;26.90;99.90;;;;;;5039588;28;19923;-66
2023/09/07 12:35:42;;;;;;;;;;;26.90;99.90;;;;;;5045494;28;20305;-66
2023/09/07 12:38:10;;;;;;;;;;;26.90;99.90;;;;;;5042617;28;20376;-66
2023/09/07 12:40:36;;;;;;;;;;;26.90;99.90;;;;;;5045221;28;19956;-66
2023/09/07 12:43:02;;;;;;;;;;;26.90;99.90;;;;;;5041129;28;20007;-67
2023/09/07 12:45:27;;;;;;;;;;;26.90;99.90;;;;;;5045116;28;20422;-66
2023/09/07 12:47:53;;;;;;;;;;;26.90;99.90;;;;;;5046457;28;19960;-66
2023/09/07 12:50:18;;;;;;;;;;;26.90;99.90;;;;;;5048527;28;20398;-67
2023/09/07 12:52:44;;;;;;;;;;;26.90;99.90;;;;;;5047215;28;19920;-66
2023/09/07 12:55:09;;;;;;;;;;;26.90;99.90;;;;;;5045060;28;19920;-67
2023/09/07 12:57:35;;;;;;;;;;;26.90;99.90;;;;;;5037800;28;20264;-66
2023/09/07 13:00:02;;;;;;;;;;;26.90;99.90;;;;;;5056142;28;20007;-67
2023/09/07 13:02:27;;;;;;;;;;;26.90;99.90;;;;;;5044281;28;20043;-66
2023/09/07 13:04:56;;;;;;;;;;;27.00;99.90;;;;;;5049340;28;20000;-67
2023/09/07 13:07:22;;;;;;;;;;;27.00;99.90;;;;;;5043080;28;20023;-66
2023/09/07 13:09:47;;;;;;;;;;;27.00;99.90;;;;;;5080576;28;20008;-67
2023/09/07 13:12:13;;;;;;;;;;;27.00;99.90;;;;;;5046153;28;19959;-66
2023/09/07 13:14:38;;;;;;;;;;;27.00;99.90;;;;;;5043819;28;19978;-67
2023/09/07 13:17:04;;;;;;;;;;;27.00;99.90;;;;;;5047639;28;19973;-66
2023/09/07 13:19:29;;;;;;;;;;;27.00;99.90;;;;;;5044204;28;20276;-66
2023/09/07 13:21:55;;;;;;;;;;;27.00;99.90;;;;;;5045954;28;19920;-67
2023/09/07 13:24:22;;;;;;;;;;;27.00;99.90;;;;;;5048065;28;19966;-66
2023/09/07 13:26:48;;;;;;;;;;;27.00;99.90;;;;;;5048035;28;20013;-66
2023/09/07 13:29:14;;;;;;;;;;;27.00;99.90;;;;;;5048402;28;19974;-67
2023/09/07 13:31:39;;;;;;;;;;;27.10;99.90;;;;;;5043241;28;20012;-66
2023/09/07 13:34:05;;;;;;;;;;;27.00;99.90;;;;;;5046619;28;19917;-66
2023/09/07 13:36:30;;;;;;;;;;;27.10;99.90;;;;;;5035124;28;20293;-66
2023/09/07 13:38:56;;;;;;;;;;;27.10;99.90;;;;;;5043207;28;19982;-67
2023/09/07 13:41:22;;;;;;;;;;;27.10;99.90;;;;;;5036469;28;20368;-66
2023/09/07 13:43:48;;;;;;;;;;;27.10;99.90;;;;;;5032692;28;19921;-67
2023/09/07 13:46:13;;;;;;;;;;;27.10;99.90;;;;;;5035945;28;20287;-66
2023/09/07 13:48:39;;;;;;;;;;;27.20;99.90;;;;;;5040813;28;19916;-67
2023/09/07 13:51:06;;;;;;;;;;;27.20;99.90;;;;;;5047706;28;19924;-66
2023/09/07 13:53:31;;;;;;;;;;;27.20;99.90;;;;;;5046906;28;19921;-67
2023/09/07 13:55:56;;;;;;;;;;;27.20;99.90;;;;;;5045697;28;20390;-67
2023/09/07 13:58:22;;;;;;;;;;;27.20;99.90;;;;;;5053045;28;19924;-67
2023/09/07 14:00:47;;;;;;;;;;;27.30;99.90;;;;;;5048440;28;20398;-67
2023/09/07 14:03:13;;;;;;;;;;;27.20;99.90;;;;;;5041724;28;20031;-66
2023/09/07 14:05:39;;;;;;;;;;;27.30;99.90;;;;;;5021697;28;19921;-67
2023/09/07 14:08:05;;;;;;;;;;;27.30;99.90;;;;;;5043995;28;19943;-67